Time;durP1;ratioP1;P1;durP2;ratioP2;P2;SDS_P1;SDS_P2;PMS_P1;PMS_P2;Temp;Humidity;BMP_temperature;BMP_pressure;BME280_temperature;BME280_humidity;BME280_pressure;Samples;Min_cycle;Max_cycle;Signal;HPM_P1;HPM_P2
2024/03/04 00:02:02;;;;;;;15.00;12.20;;;11.20;99.90;;;;;;5034016;28;20195;-70
2024/03/04 00:04:28;;;;;;;13.30;11.47;;;11.10;99.90;;;;;;5034426;28;20178;-70
2024/03/04 00:06:53;;;;;;;14.50;12.70;;;11.10;99.90;;;;;;5033451;28;20178;-70
2024/03/04 00:09:19;;;;;;;15.70;12.73;;;11.10;99.90;;;;;;5034650;28;20182;-71
2024/03/04 00:11:45;;;;;;;14.10;12.60;;;11.10;99.90;;;;;;5035583;28;20190;-71
2024/03/04 00:14:11;;;;;;;14.63;13.00;;;11.10;99.90;;;;;;5034491;28;20258;-71
2024/03/04 00:16:41;;;;;;;15.87;13.40;;;11.10;99.90;;;;;;5034150;28;20213;-71
2024/03/04 00:19:06;;;;;;;14.77;12.40;;;11.10;99.90;;;;;;5034327;28;20432;-70
2024/03/04 00:21:32;;;;;;;20.00;14.20;;;11.00;99.90;;;;;;5033956;28;20436;-71
2024/03/04 00:23:57;;;;;;;17.10;14.40;;;11.00;99.90;;;;;;5033994;28;20235;-70
2024/03/04 00:26:23;;;;;;;21.53;15.60;;;10.90;99.90;;;;;;5035174;28;20175;-70
2024/03/04 00:28:49;;;;;;;19.17;15.33;;;11.00;99.90;;;;;;5034313;28;20186;-70
2024/03/04 00:31:15;;;;;;;18.10;15.80;;;10.90;99.90;;;;;;5034741;28;20362;-71
2024/03/04 00:33:41;;;;;;;20.00;15.67;;;11.00;99.90;;;;;;5034944;28;20471;-70
2024/03/04 00:36:07;;;;;;;21.07;15.37;;;10.90;99.90;;;;;;5033670;28;20237;-71
2024/03/04 00:38:33;;;;;;;22.67;17.00;;;10.90;99.90;;;;;;5032363;28;20278;-70
2024/03/04 00:40:58;;;;;;;19.43;16.67;;;10.90;99.90;;;;;;5033919;28;20862;-71
2024/03/04 00:43:24;;;;;;;23.17;17.40;;;10.80;99.90;;;;;;5033048;28;21189;-71
2024/03/04 00:45:50;;;;;;;22.27;18.23;;;10.80;99.90;;;;;;5034317;28;20659;-70
2024/03/04 00:48:15;;;;;;;22.47;18.53;;;10.80;99.90;;;;;;5034084;28;20305;-71
2024/03/04 00:50:41;;;;;;;22.63;18.93;;;10.80;99.90;;;;;;5035004;28;20210;-70
2024/03/04 00:53:07;;;;;;;23.70;19.77;;;10.80;99.90;;;;;;5033950;28;20640;-70
2024/03/04 00:55:33;;;;;;;22.53;19.17;;;10.70;99.90;;;;;;5034366;28;20174;-71
2024/03/04 00:57:59;;;;;;;27.07;21.67;;;10.80;99.90;;;;;;5033480;28;20529;-71
2024/03/04 01:00:24;;;;;;;26.47;22.07;;;10.80;99.90;;;;;;5034017;28;20182;-71
2024/03/04 01:02:53;;;;;;;24.03;20.33;;;10.80;99.90;;;;;;5033830;28;20185;-71
2024/03/04 01:05:19;;;;;;;25.73;20.90;;;10.80;99.90;;;;;;5033342;28;20181;-70
2024/03/04 01:07:45;;;;;;;30.43;22.33;;;10.80;99.90;;;;;;5033404;28;20421;-70
2024/03/04 01:10:11;;;;;;;29.50;23.20;;;10.80;99.90;;;;;;5034417;28;20945;-70
2024/03/04 01:12:37;;;;;;;29.87;23.57;;;10.80;99.90;;;;;;5034092;28;20174;-70
2024/03/04 01:15:05;;;;;;;30.67;24.50;;;10.80;99.90;;;;;;5033166;28;20429;-71
2024/03/04 01:17:31;;;;;;;35.00;26.43;;;10.80;99.90;;;;;;5033927;28;20470;-71
2024/03/04 01:19:56;;;;;;;36.03;26.70;;;10.80;99.90;;;;;;5033309;28;20516;-71
2024/03/04 01:22:23;;;;;;;37.77;28.30;;;10.80;99.90;;;;;;5034210;28;20640;-70
2024/03/04 01:24:49;;;;;;;38.50;28.47;;;10.80;99.90;;;;;;5033141;28;20185;-70
2024/03/04 01:27:15;;;;;;;37.60;28.93;;;10.80;99.90;;;;;;5033743;28;20548;-70
2024/03/04 01:29:41;;;;;;;35.97;26.17;;;10.80;99.90;;;;;;5034039;28;20428;-71
2024/03/04 01:32:11;;;;;;;40.90;28.90;;;10.90;99.90;;;;;;5033752;28;20458;-70
2024/03/04 01:34:40;;;;;;;37.80;30.43;;;10.90;99.90;;;;;;5033951;28;20426;-70
2024/03/04 01:37:06;;;;;;;41.43;30.17;;;10.80;99.90;;;;;;5033134;28;20468;-70
2024/03/04 01:39:33;;;;;;;40.60;30.17;;;10.80;99.90;;;;;;5034200;28;20472;-71
2024/03/04 01:41:59;;;;;;;43.83;29.37;;;10.80;99.90;;;;;;5033163;28;20802;-71
2024/03/04 01:44:38;;;;;;;45.20;30.77;;;10.80;99.90;;;;;;5037989;28;20416;-70
2024/03/04 01:47:10;;;;;;;44.90;32.00;;;10.80;99.90;;;;;;5036434;28;20431;-70
2024/03/04 01:49:38;;;;;;;45.20;32.40;;;10.80;99.90;;;;;;5037268;28;20437;-71
2024/03/04 01:52:06;;;;;;;45.40;31.27;;;10.80;99.90;;;;;;5036901;28;20433;-70
2024/03/04 01:54:34;;;;;;;45.87;32.00;;;10.90;99.90;;;;;;5038426;28;21005;-70
2024/03/04 01:57:00;;;;;;;49.93;32.60;;;10.80;99.90;;;;;;5036918;28;21016;-70
2024/03/04 01:59:27;;;;;;;46.00;32.50;;;10.80;99.90;;;;;;5037701;28;20865;-70
2024/03/04 02:01:53;;;;;;;48.50;33.50;;;10.90;99.90;;;;;;5036109;28;20420;-71
2024/03/04 02:04:20;;;;;;;46.33;32.03;;;10.90;99.90;;;;;;5036642;28;20431;-70
2024/03/04 02:06:46;;;;;;;44.17;32.27;;;10.90;99.90;;;;;;5036636;28;20433;-71
2024/03/04 02:09:15;;;;;;;48.63;33.50;;;10.80;99.90;;;;;;5037879;28;20519;-71
2024/03/04 02:11:41;;;;;;;46.40;33.63;;;10.80;99.90;;;;;;5036209;28;20443;-71
2024/03/04 02:14:07;;;;;;;49.23;32.33;;;10.80;99.90;;;;;;5037370;28;20428;-70
2024/03/04 02:16:33;;;;;;;51.10;32.77;;;10.80;99.90;;;;;;5037856;28;20263;-70
2024/03/04 02:19:00;;;;;;;49.30;32.30;;;10.80;99.90;;;;;;5036307;28;20471;-71
2024/03/04 02:21:30;;;;;;;46.60;33.10;;;10.80;99.90;;;;;;5035514;28;20425;-70
2024/03/04 02:23:56;;;;;;;47.47;32.37;;;10.80;99.90;;;;;;5031971;28;20445;-70
2024/03/04 02:26:22;;;;;;;45.00;31.37;;;10.80;99.90;;;;;;5036955;28;20509;-71
2024/03/04 02:28:48;;;;;;;47.07;32.43;;;10.80;99.90;;;;;;5035671;28;21167;-70
2024/03/04 02:31:14;;;;;;;46.80;32.50;;;10.80;99.90;;;;;;5036503;28;20178;-69
2024/03/04 02:33:45;;;;;;;43.50;30.50;;;10.80;99.90;;;;;;5036678;28;20443;-71
2024/03/04 02:36:11;;;;;;;47.00;31.13;;;10.80;99.90;;;;;;5036922;28;20416;-70
2024/03/04 02:38:37;;;;;;;47.90;31.67;;;10.80;99.90;;;;;;5037529;28;20420;-70
2024/03/04 02:41:04;;;;;;;47.27;31.00;;;10.70;99.90;;;;;;5036736;28;20435;-70
2024/03/04 02:43:30;;;;;;;47.00;32.17;;;10.70;99.90;;;;;;5038205;28;20427;-70
2024/03/04 02:45:56;;;;;;;43.70;29.97;;;10.70;99.90;;;;;;5036609;28;20540;-70
2024/03/04 02:48:22;;;;;;;44.57;30.47;;;10.70;99.90;;;;;;5037125;28;20448;-70
2024/03/04 02:50:49;;;;;;;44.20;29.80;;;10.70;99.90;;;;;;5036906;28;20424;-70
2024/03/04 02:53:15;;;;;;;44.07;28.53;;;10.70;99.90;;;;;;5036312;28;20183;-70
2024/03/04 02:55:42;;;;;;;45.93;29.97;;;10.70;99.90;;;;;;5036776;28;20435;-70
2024/03/04 02:58:08;;;;;;;44.37;29.43;;;10.70;99.90;;;;;;5036690;28;20472;-71
2024/03/04 03:00:34;;;;;;;48.30;29.93;;;10.70;99.90;;;;;;5035046;28;20433;-71
2024/03/04 03:03:00;;;;;;;46.70;30.37;;;10.70;99.90;;;;;;5036345;28;20208;-70
2024/03/04 03:05:26;;;;;;;45.10;30.80;;;10.60;99.90;;;;;;5036938;28;20429;-70
2024/03/04 03:07:52;;;;;;;48.60;30.60;;;10.60;99.90;;;;;;5035953;28;20435;-70
2024/03/04 03:10:18;;;;;;;48.07;30.27;;;10.60;99.90;;;;;;5036457;28;20425;-70
2024/03/04 03:12:44;;;;;;;43.80;29.70;;;10.60;99.90;;;;;;5035231;28;20772;-71
2024/03/04 03:15:09;;;;;;;41.93;29.10;;;10.60;99.90;;;;;;5037163;28;20186;-70
2024/03/04 03:17:36;;;;;;;45.33;29.60;;;10.60;99.90;;;;;;5034941;28;20224;-70
2024/03/04 03:20:16;;;;;;;43.10;29.27;;;10.60;99.90;;;;;;5037268;28;20189;-71
2024/03/04 03:22:44;;;;;;;43.90;28.40;;;10.70;99.90;;;;;;5067342;28;21032;-70
2024/03/04 03:25:11;;;;;;;37.87;28.67;;;10.60;99.90;;;;;;5036565;28;20436;-70
2024/03/04 03:27:37;;;;;;;39.97;27.67;;;10.60;99.90;;;;;;5036618;28;21128;-70
2024/03/04 03:30:07;;;;;;;44.33;28.33;;;10.60;99.90;;;;;;5036500;28;20429;-70
2024/03/04 03:32:39;;;;;;;42.90;30.23;;;10.60;99.90;;;;;;5036714;28;20954;-71
2024/03/04 03:35:06;;;;;;;45.70;30.40;;;10.60;99.90;;;;;;5035918;28;20432;-70
2024/03/04 03:37:34;;;;;;;43.30;29.87;;;10.60;99.90;;;;;;5035948;28;20545;-70
2024/03/04 03:40:00;;;;;;;43.23;28.63;;;10.60;99.90;;;;;;5035101;28;20436;-70
2024/03/04 03:42:25;;;;;;;42.73;29.13;;;10.60;99.90;;;;;;5036718;28;20475;-70
2024/03/04 03:44:51;;;;;;;42.13;29.43;;;10.60;99.90;;;;;;5035827;28;20461;-71
2024/03/04 03:47:17;;;;;;;48.53;31.33;;;10.60;99.90;;;;;;5035938;28;20205;-70
2024/03/04 03:49:42;;;;;;;43.63;30.00;;;10.60;99.90;;;;;;5035607;28;20209;-70
2024/03/04 03:52:08;;;;;;;48.80;29.83;;;10.60;99.90;;;;;;5035894;28;20652;-71
2024/03/04 03:54:34;;;;;;;46.70;29.60;;;10.50;99.90;;;;;;5034021;28;20308;-70
2024/03/04 03:56:59;;;;;;;48.67;31.00;;;10.50;99.90;;;;;;5035590;28;20279;-70
2024/03/04 03:59:25;;;;;;;42.50;28.17;;;10.60;99.90;;;;;;5034703;28;20193;-71
2024/03/04 04:01:52;;;;;;;41.00;28.00;;;10.60;99.90;;;;;;5035686;28;20182;-70
2024/03/04 04:04:18;;;;;;;41.67;28.10;;;10.60;99.90;;;;;;5035178;28;20276;-70
2024/03/04 04:06:43;;;;;;;40.90;27.90;;;10.60;99.90;;;;;;5034623;28;20439;-70
2024/03/04 04:09:09;;;;;;;46.20;27.73;;;10.60;99.90;;;;;;5035668;28;20463;-70
2024/03/04 04:11:35;;;;;;;42.37;26.97;;;10.50;99.90;;;;;;5035487;28;20688;-70
2024/03/04 04:14:01;;;;;;;40.67;26.20;;;10.60;99.90;;;;;;5035938;28;20340;-71
2024/03/04 04:16:29;;;;;;;42.63;24.80;;;10.60;99.90;;;;;;5035677;28;20183;-70
2024/03/04 04:18:55;;;;;;;38.93;26.10;;;10.50;99.90;;;;;;5034759;28;20196;-70
2024/03/04 04:21:21;;;;;;;38.87;26.20;;;10.50;99.90;;;;;;5035803;28;20460;-70
2024/03/04 04:23:47;;;;;;;39.60;26.83;;;10.60;99.90;;;;;;5034662;28;20526;-70
2024/03/04 04:26:21;;;;;;;42.40;28.20;;;10.60;99.90;;;;;;5035705;28;20455;-70
2024/03/04 04:28:47;;;;;;;43.90;28.17;;;10.50;99.90;;;;;;5034163;28;20178;-70
2024/03/04 04:31:22;;;;;;;40.33;27.10;;;10.50;99.90;;;;;;5035891;28;21266;-70
2024/03/04 04:33:48;;;;;;;42.57;26.20;;;10.60;99.90;;;;;;5034732;28;20242;-70
2024/03/04 04:36:16;;;;;;;45.23;27.83;;;10.50;99.90;;;;;;5035420;28;20416;-70
2024/03/04 04:38:42;;;;;;;36.50;24.20;;;10.50;99.90;;;;;;5034151;28;20445;-70
2024/03/04 04:41:08;;;;;;;38.27;25.47;;;10.50;99.90;;;;;;5035420;28;20896;-70
2024/03/04 04:43:33;;;;;;;40.13;25.50;;;10.50;99.90;;;;;;5034870;28;20515;-70
2024/03/04 04:45:59;;;;;;;37.17;25.27;;;10.50;99.90;;;;;;5035663;28;21576;-70
2024/03/04 04:48:25;;;;;;;37.87;24.90;;;10.50;99.90;;;;;;5033627;28;20213;-71
2024/03/04 04:50:50;;;;;;;41.27;26.73;;;10.40;99.90;;;;;;5035370;28;20189;-70
2024/03/04 04:53:16;;;;;;;40.67;25.90;;;10.40;99.90;;;;;;5035360;28;20183;-70
2024/03/04 04:55:42;;;;;;;34.77;24.37;;;10.50;99.90;;;;;;5034062;28;20197;-70
2024/03/04 04:58:07;;;;;;;39.33;24.07;;;10.40;99.90;;;;;;5033276;28;20260;-70
2024/03/04 05:00:33;;;;;;;36.13;25.80;;;10.40;99.90;;;;;;5033974;28;20184;-71
2024/03/04 05:02:59;;;;;;;42.83;26.03;;;10.40;99.90;;;;;;5035206;28;20190;-70
2024/03/04 05:05:24;;;;;;;40.40;26.47;;;10.40;99.90;;;;;;5034797;28;20913;-71
2024/03/04 05:07:50;;;;;;;40.90;25.90;;;10.40;99.90;;;;;;5033389;28;20190;-70
2024/03/04 05:10:16;;;;;;;42.27;27.30;;;10.40;99.90;;;;;;5034734;28;20185;-70
2024/03/04 05:12:41;;;;;;;42.40;28.77;;;10.40;99.90;;;;;;5034326;28;20174;-70
2024/03/04 05:15:08;;;;;;;38.03;26.07;;;10.40;99.90;;;;;;5034631;28;20186;-70
2024/03/04 05:17:36;;;;;;;43.43;26.77;;;10.40;99.90;;;;;;5032730;28;20709;-70
2024/03/04 05:20:06;;;;;;;43.50;27.53;;;10.40;99.90;;;;;;5034359;28;21022;-70
2024/03/04 05:22:32;;;;;;;40.10;24.47;;;10.30;99.90;;;;;;5033226;28;20507;-70
2024/03/04 05:24:58;;;;;;;43.67;26.77;;;10.20;99.90;;;;;;5034785;28;20519;-70
2024/03/04 05:27:24;;;;;;;45.57;27.53;;;10.20;99.90;;;;;;5034518;28;20424;-70
2024/03/04 05:29:50;;;;;;;42.97;26.47;;;10.20;99.90;;;;;;5034164;28;20688;-70
2024/03/04 05:32:16;;;;;;;45.67;25.87;;;10.20;99.90;;;;;;5033399;28;20510;-70
2024/03/04 05:34:43;;;;;;;48.13;26.40;;;10.20;99.90;;;;;;5033751;28;21171;-70
2024/03/04 05:37:12;;;;;;;46.70;25.43;;;10.20;99.90;;;;;;5034241;28;20213;-71
2024/03/04 05:39:38;;;;;;;45.10;27.60;;;10.20;99.90;;;;;;5032917;28;20432;-70
2024/03/04 05:42:04;;;;;;;49.37;26.93;;;10.20;99.90;;;;;;5030550;28;20501;-70
2024/03/04 05:44:30;;;;;;;39.03;25.70;;;10.20;99.90;;;;;;5029074;28;21021;-70
2024/03/04 05:46:55;;;;;;;41.23;25.30;;;10.20;99.90;;;;;;5029346;28;20417;-70
2024/03/04 05:49:21;;;;;;;43.40;24.90;;;10.20;99.90;;;;;;5028865;28;20186;-71
2024/03/04 05:51:47;;;;;;;39.33;23.37;;;10.20;99.90;;;;;;5030998;28;20182;-70
2024/03/04 05:54:12;;;;;;;36.70;23.33;;;10.20;99.90;;;;;;5032807;28;20197;-70
2024/03/04 05:56:45;;;;;;;36.67;24.50;;;10.20;99.90;;;;;;5031539;28;20261;-70
2024/03/04 05:59:11;;;;;;;39.23;23.60;;;10.20;99.90;;;;;;5032560;28;20242;-70
2024/03/04 06:01:38;;;;;;;34.33;22.17;;;10.10;99.90;;;;;;5033366;28;20432;-70
2024/03/04 06:04:04;;;;;;;36.50;21.90;;;10.10;99.90;;;;;;5033103;28;20572;-71
2024/03/04 06:06:30;;;;;;;33.27;19.90;;;10.20;99.90;;;;;;5032707;28;20444;-70
2024/03/04 06:08:58;;;;;;;31.10;20.47;;;10.20;99.90;;;;;;5032155;28;20424;-70
2024/03/04 06:11:26;;;;;;;30.37;19.07;;;10.10;99.90;;;;;;5033408;28;20440;-70
2024/03/04 06:13:52;;;;;;;30.70;20.00;;;10.20;99.90;;;;;;5033394;28;21090;-70
2024/03/04 06:16:18;;;;;;;32.70;19.60;;;10.20;99.90;;;;;;5033695;28;20432;-70
2024/03/04 06:18:44;;;;;;;29.63;20.10;;;10.20;99.90;;;;;;5032789;28;20441;-70
2024/03/04 06:21:10;;;;;;;33.10;19.83;;;10.10;99.90;;;;;;5033942;28;20432;-70
2024/03/04 06:23:35;;;;;;;34.20;20.77;;;10.20;99.90;;;;;;5033118;28;20188;-70
2024/03/04 06:26:01;;;;;;;34.63;20.90;;;10.20;99.90;;;;;;5033194;28;20600;-70
2024/03/04 06:28:27;;;;;;;28.80;19.07;;;10.20;99.90;;;;;;5033806;28;20190;-71
2024/03/04 06:30:53;;;;;;;30.93;19.80;;;10.10;99.90;;;;;;5034211;28;20425;-70
2024/03/04 06:33:19;;;;;;;29.90;19.30;;;10.10;99.90;;;;;;5034809;28;20298;-71
2024/03/04 06:35:45;;;;;;;36.50;19.40;;;10.20;99.90;;;;;;5034682;28;20725;-71
2024/03/04 06:38:10;;;;;;;31.10;19.83;;;10.20;99.90;;;;;;5037324;28;20768;-70
2024/03/04 06:40:36;;;;;;;33.80;20.37;;;10.10;99.90;;;;;;5035267;28;20420;-70
2024/03/04 06:43:02;;;;;;;37.80;21.73;;;10.20;99.90;;;;;;5035217;28;20187;-70
2024/03/04 06:45:27;;;;;;;35.23;20.63;;;10.10;99.90;;;;;;5033458;28;20510;-70
2024/03/04 06:47:53;;;;;;;35.10;20.47;;;10.10;99.90;;;;;;5036875;28;20680;-70
2024/03/04 06:50:19;;;;;;;29.37;20.23;;;10.10;99.90;;;;;;5036373;28;20554;-71
2024/03/04 06:52:44;;;;;;;30.73;19.47;;;10.10;99.90;;;;;;5036697;28;20277;-69
2024/03/04 06:55:10;;;;;;;30.97;18.93;;;10.10;99.90;;;;;;5037180;28;20178;-70
2024/03/04 06:57:36;;;;;;;34.70;20.27;;;10.10;99.90;;;;;;5034247;28;21027;-71
2024/03/04 07:00:04;;;;;;;38.90;21.90;;;10.10;99.90;;;;;;5031651;28;20194;-70
2024/03/04 07:02:30;;;;;;;34.53;20.80;;;10.10;99.90;;;;;;5034660;28;20665;-70
2024/03/04 07:04:55;;;;;;;37.27;22.43;;;10.10;99.90;;;;;;5034108;28;20513;-70
2024/03/04 07:07:21;;;;;;;41.20;21.60;;;10.10;99.90;;;;;;5033263;28;20201;-70
2024/03/04 07:09:47;;;;;;;36.80;21.70;;;10.10;99.90;;;;;;5028291;28;20182;-71
2024/03/04 07:12:12;;;;;;;37.43;22.60;;;10.10;99.90;;;;;;5031315;28;20618;-68
2024/03/04 07:14:38;;;;;;;38.53;21.97;;;10.10;99.90;;;;;;5033868;28;20185;-69
2024/03/04 07:17:04;;;;;;;39.43;22.00;;;10.10;99.90;;;;;;5035251;28;20214;-68
2024/03/04 07:19:29;;;;;;;37.50;23.33;;;10.10;99.90;;;;;;5032872;28;20189;-68
2024/03/04 07:21:55;;;;;;;39.40;21.63;;;10.10;99.90;;;;;;5034474;28;20189;-68
2024/03/04 07:24:22;;;;;;;41.17;22.40;;;10.10;99.90;;;;;;5033666;28;20539;-68
2024/03/04 07:26:47;;;;;;;39.97;23.70;;;10.10;99.90;;;;;;5033190;28;20186;-68
2024/03/04 07:29:13;;;;;;;39.23;22.20;;;10.10;99.90;;;;;;5035073;28;20866;-68
2024/03/04 07:31:39;;;;;;;43.77;24.10;;;10.20;99.90;;;;;;5034399;28;20243;-68
2024/03/04 07:34:04;;;;;;;39.30;23.00;;;10.10;99.90;;;;;;5035934;28;20236;-67
2024/03/04 07:36:30;;;;;;;40.83;22.00;;;10.10;99.90;;;;;;5034676;28;20185;-68
2024/03/04 07:38:55;;;;;;;42.47;24.00;;;10.10;99.90;;;;;;5035784;28;20185;-69
2024/03/04 07:41:21;;;;;;;33.50;21.30;;;10.10;99.90;;;;;;5033879;28;20185;-69
2024/03/04 07:43:47;;;;;;;34.80;22.63;;;10.20;99.90;;;;;;5034405;28;20209;-68
2024/03/04 07:46:12;;;;;;;36.43;22.33;;;10.20;99.90;;;;;;5035403;28;20178;-68
2024/03/04 07:48:38;;;;;;;36.47;22.30;;;10.10;99.90;;;;;;5034272;28;20198;-68
2024/03/04 07:51:05;;;;;;;35.30;20.63;;;10.20;99.90;;;;;;5035813;28;20190;-68
2024/03/04 07:53:31;;;;;;;30.80;19.50;;;10.20;99.90;;;;;;5034243;28;20266;-68
2024/03/04 07:55:56;;;;;;;34.00;20.23;;;10.20;99.90;;;;;;5034957;28;20440;-68
2024/03/04 07:58:22;;;;;;;29.00;18.70;;;10.20;99.90;;;;;;5033205;28;20213;-68
2024/03/04 08:00:48;;;;;;;33.70;19.70;;;10.20;99.90;;;;;;5034380;28;20838;-68
2024/03/04 08:03:14;;;;;;;28.93;18.70;;;10.20;99.90;;;;;;5033718;28;20251;-68
2024/03/04 08:05:40;;;;;;;30.17;19.97;;;10.20;99.90;;;;;;5034007;28;20278;-69
2024/03/04 08:08:06;;;;;;;32.60;20.87;;;10.20;99.90;;;;;;5033470;28;20816;-68
2024/03/04 08:10:32;;;;;;;35.83;23.20;;;10.20;99.90;;;;;;5033877;28;20502;-68
2024/03/04 08:12:57;;;;;;;35.67;21.70;;;10.20;99.90;;;;;;5033990;28;20281;-68
2024/03/04 08:15:24;;;;;;;37.47;23.37;;;10.20;99.90;;;;;;5032553;28;20195;-69
2024/03/04 08:17:50;;;;;;;34.40;23.23;;;10.20;99.90;;;;;;5034584;28;20740;-68
2024/03/04 08:20:15;;;;;;;37.30;23.17;;;10.20;99.90;;;;;;5034812;28;20421;-68
2024/03/04 08:22:41;;;;;;;30.97;21.73;;;10.20;99.90;;;;;;5034792;28;20185;-67
2024/03/04 08:25:07;;;;;;;34.70;22.27;;;10.20;99.90;;;;;;5034879;28;20182;-68
2024/03/04 08:27:33;;;;;;;35.90;22.27;;;10.20;99.90;;;;;;5032900;28;20184;-69
2024/03/04 08:29:59;;;;;;;36.63;23.20;;;10.20;99.90;;;;;;5034748;28;20440;-68
2024/03/04 08:32:24;;;;;;;34.60;21.47;;;10.20;99.90;;;;;;5033579;28;20189;-69
2024/03/04 08:34:50;;;;;;;34.17;21.50;;;10.20;99.90;;;;;;5034573;28;20182;-68
2024/03/04 08:37:16;;;;;;;36.30;23.07;;;10.30;99.90;;;;;;5033452;28;20293;-68
2024/03/04 08:39:41;;;;;;;34.30;22.77;;;10.30;99.90;;;;;;5035257;28;20190;-68
2024/03/04 08:42:07;;;;;;;38.57;24.13;;;10.30;99.90;;;;;;5035354;28;20190;-69
2024/03/04 08:44:33;;;;;;;44.73;24.80;;;10.30;99.90;;;;;;5033120;28;20750;-68
2024/03/04 08:46:59;;;;;;;34.57;22.27;;;10.30;99.90;;;;;;5034214;28;20359;-68
2024/03/04 08:49:24;;;;;;;35.30;24.63;;;10.40;99.90;;;;;;5033476;28;20451;-68
2024/03/04 08:51:50;;;;;;;40.10;24.77;;;10.30;99.90;;;;;;5033654;28;20184;-69
2024/03/04 08:54:16;;;;;;;39.93;25.57;;;10.40;99.90;;;;;;5033544;28;20197;-69
2024/03/04 08:56:42;;;;;;;39.40;25.80;;;10.40;99.90;;;;;;5034150;28;20911;-68
2024/03/04 08:59:07;;;;;;;36.80;25.43;;;10.40;99.90;;;;;;5033377;28;21806;-68
2024/03/04 09:01:33;;;;;;;45.77;25.97;;;10.40;99.90;;;;;;5033352;28;20258;-69
2024/03/04 09:03:59;;;;;;;34.47;22.30;;;10.40;99.90;;;;;;5033544;28;20568;-68
2024/03/04 09:06:25;;;;;;;32.60;21.87;;;10.30;99.90;;;;;;5033196;28;20735;-69
2024/03/04 09:08:51;;;;;;;35.10;21.10;;;10.30;99.90;;;;;;5033796;28;20181;-68
2024/03/04 09:11:17;;;;;;;28.67;20.10;;;10.30;99.90;;;;;;5032898;28;20417;-68
2024/03/04 09:13:44;;;;;;;28.20;19.67;;;10.40;99.90;;;;;;5033742;28;20421;-68
2024/03/04 09:16:10;;;;;;;25.23;18.90;;;10.30;99.90;;;;;;5033202;28;20821;-67
2024/03/04 09:18:39;;;;;;;26.23;18.70;;;10.30;99.90;;;;;;5032610;28;20535;-69
2024/03/04 09:21:06;;;;;;;24.20;17.80;;;10.30;99.90;;;;;;5033476;28;21016;-68
2024/03/04 09:23:33;;;;;;;27.57;17.87;;;10.30;99.90;;;;;;5032709;28;20437;-68
2024/03/04 09:25:59;;;;;;;27.60;20.30;;;10.30;99.90;;;;;;5033111;28;20527;-67
2024/03/04 09:28:24;;;;;;;28.77;18.57;;;10.40;99.90;;;;;;5032084;28;20539;-68
2024/03/04 09:30:50;;;;;;;27.37;18.03;;;10.30;99.90;;;;;;5032905;28;20209;-68
2024/03/04 09:33:16;;;;;;;29.53;18.70;;;10.30;99.90;;;;;;5032549;28;20181;-68
2024/03/04 09:35:42;;;;;;;26.30;18.53;;;10.30;99.90;;;;;;5033626;28;20188;-68
2024/03/04 09:38:08;;;;;;;24.27;17.80;;;10.30;99.90;;;;;;5032047;28;20783;-69
2024/03/04 09:40:34;;;;;;;22.10;16.77;;;10.30;99.90;;;;;;5032283;28;20424;-68
2024/03/04 09:43:01;;;;;;;25.77;18.10;;;10.30;99.90;;;;;;5034099;28;20591;-68
2024/03/04 09:45:27;;;;;;;28.30;18.10;;;10.30;99.90;;;;;;5031526;28;21109;-69
2024/03/04 09:47:56;;;;;;;26.63;18.33;;;10.30;99.90;;;;;;5032781;28;20445;-68
2024/03/04 09:50:22;;;;;;;28.40;18.37;;;10.30;99.90;;;;;;5032159;28;20417;-67
2024/03/04 09:52:49;;;;;;;33.33;19.63;;;10.30;99.90;;;;;;5032440;28;20427;-68
2024/03/04 09:55:16;;;;;;;27.13;17.27;;;10.30;99.90;;;;;;5032071;28;20435;-68
2024/03/04 09:57:42;;;;;;;29.57;19.10;;;10.40;99.90;;;;;;5033201;28;20482;-68
2024/03/04 10:00:14;;;;;;;27.50;19.20;;;10.30;99.90;;;;;;5031356;28;20424;-68
2024/03/04 10:02:45;;;;;;;30.20;18.87;;;10.30;99.90;;;;;;5033385;28;20841;-68
2024/03/04 10:05:13;;;;;;;29.67;19.17;;;10.30;99.90;;;;;;5036953;28;20432;-68
2024/03/04 10:07:39;;;;;;;31.03;19.03;;;10.30;99.90;;;;;;5036647;28;21019;-68
2024/03/04 10:10:08;;;;;;;28.97;18.70;;;10.30;99.90;;;;;;5037315;28;20441;-68
2024/03/04 10:12:34;;;;;;;31.20;20.00;;;10.40;99.90;;;;;;5036060;28;20930;-68
2024/03/04 10:15:09;;;;;;;30.00;20.73;;;10.30;99.90;;;;;;5036851;28;20443;-68
2024/03/04 10:17:36;;;;;;;28.40;19.00;;;10.30;99.90;;;;;;5035923;28;20687;-69
2024/03/04 10:20:08;;;;;;;25.93;18.97;;;10.30;99.90;;;;;;5036943;28;20789;-69
2024/03/04 10:22:41;;;;;;;30.93;19.00;;;10.30;99.90;;;;;;5035428;28;20425;-68
2024/03/04 10:25:09;;;;;;;30.03;19.73;;;10.40;99.90;;;;;;5037179;28;20425;-69
2024/03/04 10:27:36;;;;;;;28.77;18.03;;;10.30;99.90;;;;;;5035838;28;20437;-69
2024/03/04 10:30:09;;;;;;;26.87;17.83;;;10.30;99.90;;;;;;5037032;28;20986;-68
2024/03/04 10:32:37;;;;;;;28.80;17.80;;;10.30;99.90;;;;;;5035813;28;20428;-68
2024/03/04 10:35:04;;;;;;;25.67;17.43;;;10.30;99.90;;;;;;5036435;28;20432;-69
2024/03/04 10:37:31;;;;;;;27.03;18.90;;;10.30;99.90;;;;;;5035103;28;20477;-67
2024/03/04 10:39:57;;;;;;;29.07;18.90;;;10.30;99.90;;;;;;5036920;28;20429;-68
2024/03/04 10:42:22;;;;;;;29.87;19.00;;;10.30;99.90;;;;;;5035347;28;20785;-69
2024/03/04 10:44:49;;;;;;;26.10;18.50;;;10.30;99.90;;;;;;5036399;28;20193;-67
2024/03/04 10:47:16;;;;;;;27.93;18.40;;;10.30;99.90;;;;;;5035014;28;20220;-68
2024/03/04 10:49:43;;;;;;;33.80;21.20;;;10.30;99.90;;;;;;5036483;28;20765;-67
2024/03/04 10:52:09;;;;;;;31.97;20.07;;;10.30;99.90;;;;;;5034114;28;20424;-68
2024/03/04 10:54:35;;;;;;;29.73;20.70;;;10.30;99.90;;;;;;5035013;28;20514;-67
2024/03/04 10:57:04;;;;;;;33.70;20.57;;;10.20;99.90;;;;;;5035398;28;20566;-67
2024/03/04 10:59:38;;;;;;;39.90;22.07;;;10.30;99.90;;;;;;5035560;28;20174;-68
2024/03/04 11:02:13;;;;;;;31.70;21.90;;;10.30;99.90;;;;;;5035795;28;20420;-67
2024/03/04 11:04:41;;;;;;;38.30;22.70;;;10.20;99.90;;;;;;5035491;28;21035;-68
2024/03/04 11:07:11;;;;;;;35.10;21.87;;;10.30;99.90;;;;;;5035024;28;20906;-67
2024/03/04 11:09:51;;;;;;;40.10;22.30;;;10.20;99.90;;;;;;5035360;28;20443;-67
2024/03/04 11:12:18;;;;;;;42.33;23.67;;;10.30;99.90;;;;;;5034387;28;20475;-68
2024/03/04 11:15:00;;;;;;;39.30;24.57;;;10.20;99.90;;;;;;5034155;28;20482;-68
2024/03/04 11:17:40;;;;;;;43.30;26.10;;;10.20;99.90;;;;;;5034169;28;20490;-68
2024/03/04 11:20:07;;;;;;;46.23;25.80;;;10.30;99.90;;;;;;5034825;28;20812;-68
2024/03/04 11:22:36;;;;;;;42.73;27.27;;;10.30;99.90;;;;;;5035402;28;20490;-68
2024/03/04 11:25:03;;;;;;;43.23;26.00;;;10.30;99.90;;;;;;5035769;28;20433;-68
2024/03/04 11:27:30;;;;;;;45.10;26.43;;;10.30;99.90;;;;;;5036745;28;20490;-67
2024/03/04 11:29:57;;;;;;;47.07;26.10;;;10.30;99.90;;;;;;5035914;28;20439;-67
2024/03/04 11:32:28;;;;;;;45.27;27.57;;;10.30;99.90;;;;;;5036194;28;20420;-68
2024/03/04 11:34:58;;;;;;;45.10;26.80;;;10.30;99.90;;;;;;5036648;28;20429;-67
2024/03/04 11:37:27;;;;;;;46.60;26.27;;;10.30;99.90;;;;;;5035707;28;21214;-68
2024/03/04 11:39:53;;;;;;;38.33;23.40;;;10.30;99.90;;;;;;5036013;28;20436;-67
2024/03/04 11:42:39;;;;;;;39.37;23.13;;;10.30;99.90;;;;;;5035666;28;20429;-67
2024/03/04 11:45:08;;;;;;;44.60;24.67;;;10.30;99.90;;;;;;5034617;28;20209;-68
2024/03/04 11:47:34;;;;;;;40.97;25.47;;;10.20;99.90;;;;;;5035555;28;20547;-68
2024/03/04 11:50:00;;;;;;;40.00;24.43;;;10.30;99.90;;;;;;5034537;28;20441;-68
2024/03/04 11:52:26;;;;;;;40.13;24.83;;;10.20;99.90;;;;;;5035756;28;20186;-68
2024/03/04 11:54:58;;;;;;;39.73;24.07;;;10.20;99.90;;;;;;5036302;28;20190;-69
2024/03/04 11:57:24;;;;;;;41.37;25.57;;;10.20;99.90;;;;;;5033620;28;20468;-68
2024/03/04 12:00:14;;;;;;;39.63;23.20;;;10.20;99.90;;;;;;5034608;28;20479;-68
2024/03/04 12:02:40;;;;;;;40.37;23.20;;;10.20;99.90;;;;;;5034994;28;20421;-68
2024/03/04 12:05:09;;;;;;;36.00;23.33;;;10.20;99.90;;;;;;5034427;28;20489;-69
2024/03/04 12:07:35;;;;;;;40.30;22.90;;;10.20;99.90;;;;;;5033276;28;20182;-68
2024/03/04 12:10:03;;;;;;;38.63;23.40;;;10.10;99.90;;;;;;5034119;28;20441;-68
2024/03/04 12:12:30;;;;;;;44.80;24.90;;;10.10;99.90;;;;;;5034593;28;20781;-68
2024/03/04 12:14:56;;;;;;;38.37;23.20;;;10.10;99.90;;;;;;5033715;28;20428;-68
2024/03/04 12:17:21;;;;;;;40.87;21.73;;;10.10;99.90;;;;;;5033929;28;20463;-68
2024/03/04 12:19:57;;;;;;;44.57;24.77;;;10.10;99.90;;;;;;5034523;28;20217;-68
2024/03/04 12:22:26;;;;;;;44.83;25.13;;;10.20;99.90;;;;;;5034766;28;20598;-68
2024/03/04 12:25:09;;;;;;;37.40;22.57;;;10.20;99.90;;;;;;5034570;28;20513;-69
2024/03/04 12:27:36;;;;;;;42.20;24.10;;;10.10;99.90;;;;;;5034710;28;20442;-68